sensor_id;sensor_type;location;lat;lon;timestamp;P1;durP1;ratioP1;P2;durP2;ratioP2
19623;SDS011;9959;49.798;9.928;2023-04-07T00:02:11;12.13;;;7.25;;
19623;SDS011;9959;49.798;9.928;2023-04-07T00:04:38;12.63;;;7.78;;
19623;SDS011;9959;49.798;9.928;2023-04-07T00:07:05;14.05;;;7.65;;
19623;SDS011;9959;49.798;9.928;2023-04-07T00:09:33;14.38;;;7.78;;
19623;SDS011;9959;49.798;9.928;2023-04-07T00:12:01;15.75;;;8.13;;
19623;SDS011;9959;49.798;9.928;2023-04-07T00:14:28;12.85;;;7.40;;
19623;SDS011;9959;49.798;9.928;2023-04-07T00:16:55;16.38;;;7.65;;
19623;SDS011;9959;49.798;9.928;2023-04-07T00:19:22;16.40;;;8.80;;
19623;SDS011;9959;49.798;9.928;2023-04-07T00:21:55;16.50;;;7.75;;
19623;SDS011;9959;49.798;9.928;2023-04-07T00:24:22;14.63;;;7.90;;
19623;SDS011;9959;49.798;9.928;2023-04-07T00:26:59;14.80;;;8.77;;
19623;SDS011;9959;49.798;9.928;2023-04-07T00:29:26;14.93;;;8.32;;
19623;SDS011;9959;49.798;9.928;2023-04-07T00:31:53;15.85;;;8.48;;
19623;SDS011;9959;49.798;9.928;2023-04-07T00:34:20;16.63;;;8.38;;
19623;SDS011;9959;49.798;9.928;2023-04-07T00:36:47;15.50;;;8.57;;
19623;SDS011;9959;49.798;9.928;2023-04-07T00:39:15;15.60;;;8.57;;
19623;SDS011;9959;49.798;9.928;2023-04-07T00:41:46;15.90;;;8.93;;
19623;SDS011;9959;49.798;9.928;2023-04-07T00:44:13;15.00;;;7.85;;
19623;SDS011;9959;49.798;9.928;2023-04-07T00:46:40;15.13;;;8.90;;
19623;SDS011;9959;49.798;9.928;2023-04-07T00:49:08;14.60;;;8.90;;
19623;SDS011;9959;49.798;9.928;2023-04-07T00:51:36;15.77;;;9.02;;
19623;SDS011;9959;49.798;9.928;2023-04-07T00:54:06;16.50;;;8.27;;
19623;SDS011;9959;49.798;9.928;2023-04-07T00:56:34;16.67;;;9.05;;
19623;SDS011;9959;49.798;9.928;2023-04-07T00:59:03;17.17;;;9.77;;
19623;SDS011;9959;49.798;9.928;2023-04-07T01:01:47;17.80;;;9.02;;
19623;SDS011;9959;49.798;9.928;2023-04-07T01:04:21;18.52;;;9.48;;
19623;SDS011;9959;49.798;9.928;2023-04-07T01:07:11;16.88;;;9.23;;
19623;SDS011;9959;49.798;9.928;2023-04-07T01:09:53;14.05;;;8.68;;
19623;SDS011;9959;49.798;9.928;2023-04-07T01:12:23;22.67;;;10.38;;
19623;SDS011;9959;49.798;9.928;2023-04-07T01:15:10;15.30;;;9.02;;
19623;SDS011;9959;49.798;9.928;2023-04-07T01:17:41;21.13;;;10.35;;
19623;SDS011;9959;49.798;9.928;2023-04-07T01:20:11;17.98;;;10.35;;
19623;SDS011;9959;49.798;9.928;2023-04-07T01:22:42;18.15;;;10.27;;
19623;SDS011;9959;49.798;9.928;2023-04-07T01:25:25;18.35;;;10.25;;
19623;SDS011;9959;49.798;9.928;2023-04-07T01:28:12;22.33;;;11.01;;
19623;SDS011;9959;49.798;9.928;2023-04-07T01:31:00;18.88;;;10.10;;
19623;SDS011;9959;49.798;9.928;2023-04-07T01:33:30;19.63;;;10.50;;
19623;SDS011;9959;49.798;9.928;2023-04-07T01:36:00;19.45;;;11.15;;
19623;SDS011;9959;49.798;9.928;2023-04-07T01:38:32;20.45;;;10.55;;
19623;SDS011;9959;49.798;9.928;2023-04-07T01:41:00;21.45;;;11.35;;
19623;SDS011;9959;49.798;9.928;2023-04-07T01:43:28;19.80;;;11.25;;
19623;SDS011;9959;49.798;9.928;2023-04-07T01:45:56;19.92;;;11.35;;
19623;SDS011;9959;49.798;9.928;2023-04-07T01:48:24;19.80;;;10.90;;
19623;SDS011;9959;49.798;9.928;2023-04-07T01:50:52;20.13;;;11.32;;
19623;SDS011;9959;49.798;9.928;2023-04-07T01:53:21;23.05;;;11.95;;
19623;SDS011;9959;49.798;9.928;2023-04-07T01:55:49;22.27;;;11.38;;
19623;SDS011;9959;49.798;9.928;2023-04-07T01:58:17;20.20;;;10.68;;
19623;SDS011;9959;49.798;9.928;2023-04-07T02:00:45;22.23;;;11.35;;
19623;SDS011;9959;49.798;9.928;2023-04-07T02:03:14;25.73;;;12.00;;
19623;SDS011;9959;49.798;9.928;2023-04-07T02:05:49;22.85;;;11.23;;
19623;SDS011;9959;49.798;9.928;2023-04-07T02:08:18;24.85;;;11.43;;
19623;SDS011;9959;49.798;9.928;2023-04-07T02:11:04;20.88;;;11.75;;
19623;SDS011;9959;49.798;9.928;2023-04-07T02:13:34;24.10;;;12.05;;
19623;SDS011;9959;49.798;9.928;2023-04-07T02:16:03;22.90;;;12.40;;
19623;SDS011;9959;49.798;9.928;2023-04-07T02:18:32;30.58;;;13.40;;
19623;SDS011;9959;49.798;9.928;2023-04-07T02:21:00;24.52;;;12.82;;
19623;SDS011;9959;49.798;9.928;2023-04-07T02:23:29;30.00;;;13.70;;
19623;SDS011;9959;49.798;9.928;2023-04-07T02:25:57;24.33;;;13.10;;
19623;SDS011;9959;49.798;9.928;2023-04-07T02:28:24;26.60;;;13.68;;
19623;SDS011;9959;49.798;9.928;2023-04-07T02:30:50;27.80;;;13.45;;
19623;SDS011;9959;49.798;9.928;2023-04-07T02:33:20;23.02;;;12.00;;
19623;SDS011;9959;49.798;9.928;2023-04-07T02:35:48;23.95;;;12.10;;
19623;SDS011;9959;49.798;9.928;2023-04-07T02:38:15;25.27;;;12.23;;
19623;SDS011;9959;49.798;9.928;2023-04-07T02:40:44;22.70;;;11.95;;
19623;SDS011;9959;49.798;9.928;2023-04-07T02:43:14;21.80;;;11.70;;
19623;SDS011;9959;49.798;9.928;2023-04-07T02:45:43;24.17;;;12.77;;
19623;SDS011;9959;49.798;9.928;2023-04-07T02:48:09;20.67;;;11.40;;
19623;SDS011;9959;49.798;9.928;2023-04-07T02:50:36;21.17;;;11.52;;
19623;SDS011;9959;49.798;9.928;2023-04-07T02:53:06;24.48;;;12.05;;
19623;SDS011;9959;49.798;9.928;2023-04-07T02:55:33;22.92;;;12.35;;
19623;SDS011;9959;49.798;9.928;2023-04-07T02:58:00;23.63;;;12.45;;
19623;SDS011;9959;49.798;9.928;2023-04-07T03:00:27;20.88;;;11.30;;
19623;SDS011;9959;49.798;9.928;2023-04-07T03:02:57;23.73;;;12.32;;
19623;SDS011;9959;49.798;9.928;2023-04-07T03:05:25;21.92;;;11.73;;
19623;SDS011;9959;49.798;9.928;2023-04-07T03:07:52;22.08;;;11.40;;
19623;SDS011;9959;49.798;9.928;2023-04-07T03:10:21;22.55;;;12.45;;
19623;SDS011;9959;49.798;9.928;2023-04-07T03:12:48;21.50;;;11.65;;
19623;SDS011;9959;49.798;9.928;2023-04-07T03:15:17;21.98;;;12.70;;
19623;SDS011;9959;49.798;9.928;2023-04-07T03:17:46;27.65;;;12.80;;
19623;SDS011;9959;49.798;9.928;2023-04-07T03:20:13;24.92;;;12.25;;
19623;SDS011;9959;49.798;9.928;2023-04-07T03:22:40;23.52;;;12.27;;
19623;SDS011;9959;49.798;9.928;2023-04-07T03:25:11;21.27;;;11.48;;
19623;SDS011;9959;49.798;9.928;2023-04-07T03:27:41;23.25;;;12.23;;
19623;SDS011;9959;49.798;9.928;2023-04-07T03:30:09;27.10;;;12.88;;
19623;SDS011;9959;49.798;9.928;2023-04-07T03:32:38;25.88;;;12.88;;
19623;SDS011;9959;49.798;9.928;2023-04-07T03:35:06;25.10;;;13.35;;
19623;SDS011;9959;49.798;9.928;2023-04-07T03:37:37;26.50;;;13.27;;
19623;SDS011;9959;49.798;9.928;2023-04-07T03:40:04;27.13;;;12.95;;
19623;SDS011;9959;49.798;9.928;2023-04-07T03:42:34;23.92;;;13.02;;
19623;SDS011;9959;49.798;9.928;2023-04-07T03:45:12;25.27;;;12.85;;
19623;SDS011;9959;49.798;9.928;2023-04-07T03:47:39;27.08;;;13.38;;
19623;SDS011;9959;49.798;9.928;2023-04-07T03:50:06;30.48;;;14.63;;
19623;SDS011;9959;49.798;9.928;2023-04-07T03:52:34;25.63;;;13.43;;
19623;SDS011;9959;49.798;9.928;2023-04-07T03:55:04;30.42;;;14.73;;
19623;SDS011;9959;49.798;9.928;2023-04-07T03:57:38;25.90;;;13.55;;
19623;SDS011;9959;49.798;9.928;2023-04-07T04:00:08;29.55;;;14.48;;
19623;SDS011;9959;49.798;9.928;2023-04-07T04:02:36;31.00;;;15.02;;
19623;SDS011;9959;49.798;9.928;2023-04-07T04:05:03;29.38;;;14.60;;
19623;SDS011;9959;49.798;9.928;2023-04-07T04:07:31;24.98;;;12.65;;
19623;SDS011;9959;49.798;9.928;2023-04-07T04:10:01;30.77;;;14.57;;
19623;SDS011;9959;49.798;9.928;2023-04-07T04:12:29;27.58;;;14.30;;
19623;SDS011;9959;49.798;9.928;2023-04-07T04:14:56;30.85;;;14.35;;
19623;SDS011;9959;49.798;9.928;2023-04-07T04:17:23;29.15;;;15.70;;
19623;SDS011;9959;49.798;9.928;2023-04-07T04:19:51;30.58;;;14.68;;
19623;SDS011;9959;49.798;9.928;2023-04-07T04:22:18;29.52;;;15.25;;
19623;SDS011;9959;49.798;9.928;2023-04-07T04:24:44;30.80;;;15.55;;
19623;SDS011;9959;49.798;9.928;2023-04-07T04:27:14;30.10;;;14.05;;
19623;SDS011;9959;49.798;9.928;2023-04-07T04:29:41;32.05;;;15.13;;
19623;SDS011;9959;49.798;9.928;2023-04-07T04:32:08;32.83;;;15.65;;
19623;SDS011;9959;49.798;9.928;2023-04-07T04:34:36;36.50;;;14.98;;
19623;SDS011;9959;49.798;9.928;2023-04-07T04:37:02;32.38;;;15.82;;
19623;SDS011;9959;49.798;9.928;2023-04-07T04:39:29;28.20;;;14.73;;
19623;SDS011;9959;49.798;9.928;2023-04-07T04:41:56;30.20;;;14.43;;
19623;SDS011;9959;49.798;9.928;2023-04-07T04:44:23;29.92;;;15.05;;
19623;SDS011;9959;49.798;9.928;2023-04-07T04:46:50;27.67;;;13.88;;
19623;SDS011;9959;49.798;9.928;2023-04-07T04:49:18;31.38;;;15.50;;
19623;SDS011;9959;49.798;9.928;2023-04-07T04:51:45;31.77;;;15.77;;
19623;SDS011;9959;49.798;9.928;2023-04-07T04:54:12;33.80;;;16.52;;
19623;SDS011;9959;49.798;9.928;2023-04-07T04:56:42;30.75;;;15.10;;
19623;SDS011;9959;49.798;9.928;2023-04-07T04:59:09;32.70;;;15.15;;
19623;SDS011;9959;49.798;9.928;2023-04-07T05:01:36;32.35;;;15.63;;
19623;SDS011;9959;49.798;9.928;2023-04-07T05:04:09;29.33;;;15.07;;
19623;SDS011;9959;49.798;9.928;2023-04-07T05:06:45;30.95;;;15.10;;
19623;SDS011;9959;49.798;9.928;2023-04-07T05:09:12;29.05;;;14.50;;
19623;SDS011;9959;49.798;9.928;2023-04-07T05:11:39;29.33;;;15.43;;
19623;SDS011;9959;49.798;9.928;2023-04-07T05:14:10;32.40;;;16.17;;
19623;SDS011;9959;49.798;9.928;2023-04-07T05:16:37;31.10;;;15.35;;
19623;SDS011;9959;49.798;9.928;2023-04-07T05:19:04;30.20;;;14.27;;
19623;SDS011;9959;49.798;9.928;2023-04-07T05:21:31;32.85;;;16.40;;
19623;SDS011;9959;49.798;9.928;2023-04-07T05:23:58;32.13;;;16.65;;
19623;SDS011;9959;49.798;9.928;2023-04-07T05:26:25;32.65;;;15.63;;
19623;SDS011;9959;49.798;9.928;2023-04-07T05:28:52;30.83;;;15.20;;
19623;SDS011;9959;49.798;9.928;2023-04-07T05:31:19;31.75;;;15.63;;
19623;SDS011;9959;49.798;9.928;2023-04-07T05:33:46;29.83;;;14.95;;
19623;SDS011;9959;49.798;9.928;2023-04-07T05:36:14;31.35;;;14.95;;
19623;SDS011;9959;49.798;9.928;2023-04-07T05:38:45;30.92;;;14.98;;
19623;SDS011;9959;49.798;9.928;2023-04-07T05:41:12;28.48;;;14.82;;
19623;SDS011;9959;49.798;9.928;2023-04-07T05:43:42;27.73;;;15.43;;
19623;SDS011;9959;49.798;9.928;2023-04-07T05:46:10;29.88;;;15.02;;
19623;SDS011;9959;49.798;9.928;2023-04-07T05:48:37;30.20;;;15.27;;
19623;SDS011;9959;49.798;9.928;2023-04-07T05:51:07;29.75;;;14.65;;
19623;SDS011;9959;49.798;9.928;2023-04-07T05:53:34;28.77;;;14.50;;
19623;SDS011;9959;49.798;9.928;2023-04-07T05:56:01;28.30;;;14.95;;
19623;SDS011;9959;49.798;9.928;2023-04-07T05:58:28;29.42;;;15.00;;
19623;SDS011;9959;49.798;9.928;2023-04-07T06:00:55;30.92;;;16.60;;
19623;SDS011;9959;49.798;9.928;2023-04-07T06:03:23;33.20;;;16.23;;
19623;SDS011;9959;49.798;9.928;2023-04-07T06:05:51;35.60;;;16.55;;
19623;SDS011;9959;49.798;9.928;2023-04-07T06:08:18;33.00;;;16.45;;
19623;SDS011;9959;49.798;9.928;2023-04-07T06:10:45;33.97;;;16.63;;
19623;SDS011;9959;49.798;9.928;2023-04-07T06:13:12;30.40;;;16.15;;
19623;SDS011;9959;49.798;9.928;2023-04-07T06:15:39;31.83;;;16.27;;
19623;SDS011;9959;49.798;9.928;2023-04-07T06:18:07;33.55;;;16.33;;
19623;SDS011;9959;49.798;9.928;2023-04-07T06:20:36;31.35;;;15.98;;
19623;SDS011;9959;49.798;9.928;2023-04-07T06:23:07;33.35;;;15.52;;
19623;SDS011;9959;49.798;9.928;2023-04-07T06:25:34;30.55;;;16.05;;
19623;SDS011;9959;49.798;9.928;2023-04-07T06:28:01;29.63;;;15.55;;
19623;SDS011;9959;49.798;9.928;2023-04-07T06:30:28;34.67;;;16.48;;
19623;SDS011;9959;49.798;9.928;2023-04-07T06:32:55;30.05;;;15.73;;
19623;SDS011;9959;49.798;9.928;2023-04-07T06:35:22;29.45;;;16.00;;
19623;SDS011;9959;49.798;9.928;2023-04-07T06:37:52;30.75;;;15.27;;
19623;SDS011;9959;49.798;9.928;2023-04-07T06:40:19;35.20;;;17.83;;
19623;SDS011;9959;49.798;9.928;2023-04-07T06:42:46;28.45;;;15.18;;
19623;SDS011;9959;49.798;9.928;2023-04-07T06:45:13;34.25;;;16.83;;
19623;SDS011;9959;49.798;9.928;2023-04-07T06:47:39;32.47;;;16.05;;
19623;SDS011;9959;49.798;9.928;2023-04-07T06:50:06;29.45;;;15.05;;
19623;SDS011;9959;49.798;9.928;2023-04-07T06:52:33;31.70;;;15.90;;
19623;SDS011;9959;49.798;9.928;2023-04-07T06:55:00;28.20;;;15.52;;
19623;SDS011;9959;49.798;9.928;2023-04-07T06:57:27;30.85;;;15.88;;
19623;SDS011;9959;49.798;9.928;2023-04-07T06:59:54;28.40;;;16.23;;
19623;SDS011;9959;49.798;9.928;2023-04-07T07:02:21;34.75;;;17.85;;
19623;SDS011;9959;49.798;9.928;2023-04-07T07:04:48;31.67;;;16.65;;
19623;SDS011;9959;49.798;9.928;2023-04-07T07:07:18;32.35;;;16.00;;
19623;SDS011;9959;49.798;9.928;2023-04-07T07:09:46;29.10;;;15.90;;
19623;SDS011;9959;49.798;9.928;2023-04-07T07:12:12;32.90;;;15.98;;
19623;SDS011;9959;49.798;9.928;2023-04-07T07:14:41;34.75;;;16.17;;
19623;SDS011;9959;49.798;9.928;2023-04-07T07:17:08;33.33;;;16.90;;
19623;SDS011;9959;49.798;9.928;2023-04-07T07:19:35;33.28;;;17.33;;
19623;SDS011;9959;49.798;9.928;2023-04-07T07:22:02;32.83;;;17.25;;
19623;SDS011;9959;49.798;9.928;2023-04-07T07:24:29;32.75;;;18.17;;
19623;SDS011;9959;49.798;9.928;2023-04-07T07:26:59;30.80;;;17.27;;
19623;SDS011;9959;49.798;9.928;2023-04-07T07:29:27;34.47;;;17.55;;
19623;SDS011;9959;49.798;9.928;2023-04-07T07:31:54;29.75;;;16.13;;
19623;SDS011;9959;49.798;9.928;2023-04-07T07:34:21;34.10;;;16.52;;
19623;SDS011;9959;49.798;9.928;2023-04-07T07:36:48;29.95;;;16.35;;
19623;SDS011;9959;49.798;9.928;2023-04-07T07:39:16;34.40;;;17.08;;
19623;SDS011;9959;49.798;9.928;2023-04-07T07:41:43;31.83;;;17.50;;
19623;SDS011;9959;49.798;9.928;2023-04-07T07:44:10;33.30;;;17.73;;
19623;SDS011;9959;49.798;9.928;2023-04-07T07:46:37;32.20;;;16.98;;
19623;SDS011;9959;49.798;9.928;2023-04-07T07:49:04;35.95;;;17.10;;
19623;SDS011;9959;49.798;9.928;2023-04-07T07:51:31;34.90;;;17.38;;
19623;SDS011;9959;49.798;9.928;2023-04-07T07:53:58;34.20;;;16.85;;
19623;SDS011;9959;49.798;9.928;2023-04-07T07:56:25;29.00;;;16.73;;
19623;SDS011;9959;49.798;9.928;2023-04-07T07:58:52;31.60;;;16.60;;
19623;SDS011;9959;49.798;9.928;2023-04-07T08:01:19;31.17;;;17.45;;
19623;SDS011;9959;49.798;9.928;2023-04-07T08:03:47;33.50;;;17.75;;
19623;SDS011;9959;49.798;9.928;2023-04-07T08:06:14;31.08;;;17.42;;
19623;SDS011;9959;49.798;9.928;2023-04-07T08:08:42;31.08;;;16.75;;
19623;SDS011;9959;49.798;9.928;2023-04-07T08:11:11;26.52;;;15.75;;
19623;SDS011;9959;49.798;9.928;2023-04-07T08:13:38;30.10;;;16.95;;
19623;SDS011;9959;49.798;9.928;2023-04-07T08:16:05;31.25;;;17.40;;
19623;SDS011;9959;49.798;9.928;2023-04-07T08:18:32;31.55;;;16.92;;
19623;SDS011;9959;49.798;9.928;2023-04-07T08:20:59;29.02;;;16.52;;
19623;SDS011;9959;49.798;9.928;2023-04-07T08:23:27;28.33;;;16.83;;
19623;SDS011;9959;49.798;9.928;2023-04-07T08:25:55;34.03;;;17.45;;
19623;SDS011;9959;49.798;9.928;2023-04-07T08:28:23;32.95;;;16.77;;
19623;SDS011;9959;49.798;9.928;2023-04-07T08:30:51;30.95;;;16.15;;
19623;SDS011;9959;49.798;9.928;2023-04-07T08:33:18;29.27;;;16.35;;
19623;SDS011;9959;49.798;9.928;2023-04-07T08:35:44;28.02;;;15.75;;
19623;SDS011;9959;49.798;9.928;2023-04-07T08:38:11;28.02;;;16.10;;
19623;SDS011;9959;49.798;9.928;2023-04-07T08:40:38;31.13;;;17.00;;
19623;SDS011;9959;49.798;9.928;2023-04-07T08:43:07;27.08;;;15.77;;
19623;SDS011;9959;49.798;9.928;2023-04-07T08:45:38;30.90;;;17.63;;
19623;SDS011;9959;49.798;9.928;2023-04-07T08:48:12;30.23;;;16.85;;
19623;SDS011;9959;49.798;9.928;2023-04-07T08:50:43;29.05;;;16.27;;
19623;SDS011;9959;49.798;9.928;2023-04-07T08:53:12;33.85;;;16.52;;
19623;SDS011;9959;49.798;9.928;2023-04-07T08:55:43;26.73;;;15.25;;
19623;SDS011;9959;49.798;9.928;2023-04-07T08:58:11;27.40;;;15.45;;
19623;SDS011;9959;49.798;9.928;2023-04-07T09:00:39;25.70;;;15.52;;
19623;SDS011;9959;49.798;9.928;2023-04-07T09:03:11;27.63;;;15.82;;
19623;SDS011;9959;49.798;9.928;2023-04-07T09:05:38;26.38;;;15.65;;
19623;SDS011;9959;49.798;9.928;2023-04-07T09:08:06;26.48;;;15.45;;
19623;SDS011;9959;49.798;9.928;2023-04-07T09:10:42;25.30;;;14.68;;
19623;SDS011;9959;49.798;9.928;2023-04-07T09:13:09;27.67;;;15.45;;
19623;SDS011;9959;49.798;9.928;2023-04-07T09:15:39;24.13;;;13.32;;
19623;SDS011;9959;49.798;9.928;2023-04-07T09:18:06;26.88;;;15.10;;
19623;SDS011;9959;49.798;9.928;2023-04-07T09:23:27;24.98;;;14.30;;
19623;SDS011;9959;49.798;9.928;2023-04-07T09:25:58;24.17;;;13.40;;
19623;SDS011;9959;49.798;9.928;2023-04-07T09:28:42;21.45;;;13.80;;
19623;SDS011;9959;49.798;9.928;2023-04-07T09:31:11;21.67;;;13.20;;
19623;SDS011;9959;49.798;9.928;2023-04-07T09:33:38;20.42;;;13.25;;
19623;SDS011;9959;49.798;9.928;2023-04-07T09:36:05;23.02;;;12.35;;
19623;SDS011;9959;49.798;9.928;2023-04-07T09:38:36;20.52;;;12.52;;
19623;SDS011;9959;49.798;9.928;2023-04-07T09:41:08;18.27;;;11.95;;
19623;SDS011;9959;49.798;9.928;2023-04-07T09:43:40;18.23;;;12.18;;
19623;SDS011;9959;49.798;9.928;2023-04-07T09:46:13;18.20;;;11.93;;
19623;SDS011;9959;49.798;9.928;2023-04-07T09:48:43;17.92;;;11.43;;
19623;SDS011;9959;49.798;9.928;2023-04-07T09:51:12;14.93;;;11.30;;
19623;SDS011;9959;49.798;9.928;2023-04-07T09:53:42;19.70;;;11.88;;
19623;SDS011;9959;49.798;9.928;2023-04-07T09:56:19;19.33;;;11.57;;
19623;SDS011;9959;49.798;9.928;2023-04-07T09:58:50;16.58;;;11.52;;
19623;SDS011;9959;49.798;9.928;2023-04-07T10:01:17;18.77;;;11.50;;
19623;SDS011;9959;49.798;9.928;2023-04-07T10:03:47;18.38;;;11.25;;
19623;SDS011;9959;49.798;9.928;2023-04-07T10:06:16;18.45;;;10.43;;
19623;SDS011;9959;49.798;9.928;2023-04-07T10:08:45;16.13;;;10.40;;
19623;SDS011;9959;49.798;9.928;2023-04-07T10:11:12;16.73;;;10.85;;
19623;SDS011;9959;49.798;9.928;2023-04-07T10:13:41;15.73;;;10.25;;
19623;SDS011;9959;49.798;9.928;2023-04-07T10:16:08;16.38;;;10.93;;
19623;SDS011;9959;49.798;9.928;2023-04-07T10:18:35;15.30;;;10.30;;
19623;SDS011;9959;49.798;9.928;2023-04-07T10:21:04;18.08;;;10.57;;
19623;SDS011;9959;49.798;9.928;2023-04-07T10:23:39;18.45;;;10.52;;
19623;SDS011;9959;49.798;9.928;2023-04-07T10:26:15;16.02;;;10.43;;
19623;SDS011;9959;49.798;9.928;2023-04-07T10:28:45;19.00;;;10.25;;
19623;SDS011;9959;49.798;9.928;2023-04-07T10:31:16;16.88;;;10.25;;
19623;SDS011;9959;49.798;9.928;2023-04-07T10:36:18;17.42;;;10.60;;
19623;SDS011;9959;49.798;9.928;2023-04-07T10:44:03;16.67;;;10.73;;
19623;SDS011;9959;49.798;9.928;2023-04-07T10:49:11;18.63;;;11.00;;
19623;SDS011;9959;49.798;9.928;2023-04-07T10:51:41;17.25;;;10.57;;
19623;SDS011;9959;49.798;9.928;2023-04-07T10:57:19;14.88;;;9.65;;
19623;SDS011;9959;49.798;9.928;2023-04-07T10:59:41;13.18;;;9.20;;
19623;SDS011;9959;49.798;9.928;2023-04-07T11:02:29;14.35;;;10.18;;
19623;SDS011;9959;49.798;9.928;2023-04-07T11:04:58;13.48;;;9.57;;
19623;SDS011;9959;49.798;9.928;2023-04-07T11:10:32;15.68;;;9.93;;
19623;SDS011;9959;49.798;9.928;2023-04-07T11:13:04;16.55;;;9.73;;
19623;SDS011;9959;49.798;9.928;2023-04-07T11:15:36;15.82;;;10.85;;
19623;SDS011;9959;49.798;9.928;2023-04-07T11:20:46;12.05;;;9.13;;
19623;SDS011;9959;49.798;9.928;2023-04-07T11:23:14;13.77;;;9.65;;
19623;SDS011;9959;49.798;9.928;2023-04-07T11:25:45;17.27;;;11.45;;
19623;SDS011;9959;49.798;9.928;2023-04-07T11:28:14;13.80;;;9.82;;
19623;SDS011;9959;49.798;9.928;2023-04-07T11:30:48;16.45;;;10.32;;
19623;SDS011;9959;49.798;9.928;2023-04-07T11:33:19;16.27;;;11.23;;
19623;SDS011;9959;49.798;9.928;2023-04-07T11:35:58;14.60;;;10.07;;
19623;SDS011;9959;49.798;9.928;2023-04-07T11:38:27;13.15;;;9.25;;
19623;SDS011;9959;49.798;9.928;2023-04-07T11:40:56;12.27;;;9.50;;
19623;SDS011;9959;49.798;9.928;2023-04-07T11:43:34;13.52;;;9.32;;
19623;SDS011;9959;49.798;9.928;2023-04-07T11:46:13;14.07;;;9.77;;
19623;SDS011;9959;49.798;9.928;2023-04-07T11:48:42;13.88;;;10.07;;
19623;SDS011;9959;49.798;9.928;2023-04-07T11:51:17;13.88;;;10.05;;
19623;SDS011;9959;49.798;9.928;2023-04-07T11:53:45;15.75;;;9.80;;
19623;SDS011;9959;49.798;9.928;2023-04-07T11:56:14;15.05;;;10.30;;
19623;SDS011;9959;49.798;9.928;2023-04-07T11:58:49;15.25;;;9.98;;
19623;SDS011;9959;49.798;9.928;2023-04-07T12:01:18;14.73;;;10.20;;
19623;SDS011;9959;49.798;9.928;2023-04-07T12:04:01;14.90;;;10.27;;
19623;SDS011;9959;49.798;9.928;2023-04-07T12:06:30;16.17;;;10.07;;
19623;SDS011;9959;49.798;9.928;2023-04-07T12:09:04;14.65;;;10.20;;
19623;SDS011;9959;49.798;9.928;2023-04-07T12:11:32;13.75;;;9.30;;
19623;SDS011;9959;49.798;9.928;2023-04-07T12:14:00;13.98;;;9.93;;
19623;SDS011;9959;49.798;9.928;2023-04-07T12:16:30;16.67;;;10.02;;
19623;SDS011;9959;49.798;9.928;2023-04-07T12:18:57;15.30;;;10.23;;
19623;SDS011;9959;49.798;9.928;2023-04-07T12:21:24;12.55;;;9.55;;
19623;SDS011;9959;49.798;9.928;2023-04-07T12:23:52;13.32;;;9.65;;
19623;SDS011;9959;49.798;9.928;2023-04-07T12:26:18;13.48;;;9.30;;
19623;SDS011;9959;49.798;9.928;2023-04-07T12:28:48;13.68;;;9.45;;
19623;SDS011;9959;49.798;9.928;2023-04-07T12:31:15;14.80;;;9.25;;
19623;SDS011;9959;49.798;9.928;2023-04-07T12:33:43;13.23;;;9.50;;
19623;SDS011;9959;49.798;9.928;2023-04-07T12:36:09;10.55;;;8.00;;
19623;SDS011;9959;49.798;9.928;2023-04-07T12:38:36;12.40;;;9.02;;
19623;SDS011;9959;49.798;9.928;2023-04-07T12:41:03;13.45;;;9.02;;
19623;SDS011;9959;49.798;9.928;2023-04-07T12:43:33;13.07;;;8.73;;
19623;SDS011;9959;49.798;9.928;2023-04-07T12:46:01;11.43;;;8.68;;
19623;SDS011;9959;49.798;9.928;2023-04-07T12:48:28;12.60;;;9.25;;
19623;SDS011;9959;49.798;9.928;2023-04-07T12:50:54;11.80;;;8.27;;
19623;SDS011;9959;49.798;9.928;2023-04-07T12:53:21;11.60;;;8.57;;
19623;SDS011;9959;49.798;9.928;2023-04-07T12:55:48;11.07;;;8.63;;
19623;SDS011;9959;49.798;9.928;2023-04-07T12:58:18;10.48;;;7.75;;
19623;SDS011;9959;49.798;9.928;2023-04-07T13:00:46;9.85;;;7.70;;
19623;SDS011;9959;49.798;9.928;2023-04-07T13:03:13;9.75;;;7.65;;
19623;SDS011;9959;49.798;9.928;2023-04-07T13:05:41;10.18;;;7.72;;
19623;SDS011;9959;49.798;9.928;2023-04-07T13:08:08;11.68;;;7.95;;
19623;SDS011;9959;49.798;9.928;2023-04-07T13:10:36;10.98;;;7.60;;
19623;SDS011;9959;49.798;9.928;2023-04-07T13:13:03;10.25;;;7.78;;
19623;SDS011;9959;49.798;9.928;2023-04-07T13:15:29;9.60;;;7.50;;
19623;SDS011;9959;49.798;9.928;2023-04-07T13:17:56;10.15;;;7.05;;
19623;SDS011;9959;49.798;9.928;2023-04-07T13:20:23;9.70;;;6.50;;
19623;SDS011;9959;49.798;9.928;2023-04-07T13:22:53;9.95;;;6.43;;
19623;SDS011;9959;49.798;9.928;2023-04-07T13:25:34;8.77;;;6.47;;
19623;SDS011;9959;49.798;9.928;2023-04-07T13:28:01;9.60;;;6.22;;
19623;SDS011;9959;49.798;9.928;2023-04-07T13:30:29;8.57;;;6.00;;
19623;SDS011;9959;49.798;9.928;2023-04-07T13:32:56;7.90;;;6.00;;
19623;SDS011;9959;49.798;9.928;2023-04-07T13:35:23;9.88;;;6.80;;
19623;SDS011;9959;49.798;9.928;2023-04-07T13:37:49;8.25;;;6.32;;
19623;SDS011;9959;49.798;9.928;2023-04-07T13:40:16;9.55;;;6.57;;
19623;SDS011;9959;49.798;9.928;2023-04-07T13:42:44;8.32;;;5.97;;
19623;SDS011;9959;49.798;9.928;2023-04-07T13:45:11;9.50;;;7.35;;
19623;SDS011;9959;49.798;9.928;2023-04-07T13:47:38;10.18;;;6.20;;
19623;SDS011;9959;49.798;9.928;2023-04-07T13:50:05;9.52;;;6.75;;
19623;SDS011;9959;49.798;9.928;2023-04-07T13:52:32;9.93;;;6.95;;
19623;SDS011;9959;49.798;9.928;2023-04-07T13:55:00;8.73;;;6.85;;
19623;SDS011;9959;49.798;9.928;2023-04-07T13:57:29;9.40;;;6.75;;
19623;SDS011;9959;49.798;9.928;2023-04-07T13:59:57;7.72;;;6.43;;
19623;SDS011;9959;49.798;9.928;2023-04-07T14:02:24;10.27;;;7.43;;
19623;SDS011;9959;49.798;9.928;2023-04-07T14:04:55;10.02;;;6.45;;
19623;SDS011;9959;49.798;9.928;2023-04-07T14:07:23;10.30;;;6.38;;
19623;SDS011;9959;49.798;9.928;2023-04-07T14:09:49;7.68;;;5.78;;
19623;SDS011;9959;49.798;9.928;2023-04-07T14:12:16;10.93;;;6.07;;
19623;SDS011;9959;49.798;9.928;2023-04-07T14:14:46;9.75;;;6.80;;
19623;SDS011;9959;49.798;9.928;2023-04-07T14:17:17;9.48;;;6.70;;
19623;SDS011;9959;49.798;9.928;2023-04-07T14:19:44;7.18;;;5.78;;
19623;SDS011;9959;49.798;9.928;2023-04-07T14:22:12;8.63;;;6.47;;
19623;SDS011;9959;49.798;9.928;2023-04-07T14:24:39;11.00;;;6.32;;
19623;SDS011;9959;49.798;9.928;2023-04-07T14:27:06;8.23;;;6.00;;
19623;SDS011;9959;49.798;9.928;2023-04-07T14:29:33;9.02;;;6.20;;
19623;SDS011;9959;49.798;9.928;2023-04-07T14:32:01;11.30;;;6.35;;
19623;SDS011;9959;49.798;9.928;2023-04-07T14:34:28;8.80;;;5.85;;
19623;SDS011;9959;49.798;9.928;2023-04-07T14:36:56;10.18;;;6.32;;
19623;SDS011;9959;49.798;9.928;2023-04-07T14:39:24;9.02;;;6.13;;
19623;SDS011;9959;49.798;9.928;2023-04-07T14:41:52;8.35;;;6.47;;
19623;SDS011;9959;49.798;9.928;2023-04-07T14:44:19;7.32;;;6.00;;
19623;SDS011;9959;49.798;9.928;2023-04-07T14:46:46;7.40;;;5.72;;
19623;SDS011;9959;49.798;9.928;2023-04-07T14:49:14;9.18;;;6.88;;
19623;SDS011;9959;49.798;9.928;2023-04-07T14:51:41;10.55;;;7.82;;
19623;SDS011;9959;49.798;9.928;2023-04-07T14:54:08;10.30;;;6.93;;
19623;SDS011;9959;49.798;9.928;2023-04-07T14:56:35;8.40;;;6.40;;
19623;SDS011;9959;49.798;9.928;2023-04-07T14:59:02;9.05;;;7.20;;
19623;SDS011;9959;49.798;9.928;2023-04-07T15:01:29;9.70;;;6.95;;
19623;SDS011;9959;49.798;9.928;2023-04-07T15:03:56;10.30;;;7.05;;
19623;SDS011;9959;49.798;9.928;2023-04-07T15:06:26;8.48;;;6.60;;
19623;SDS011;9959;49.798;9.928;2023-04-07T15:08:53;8.70;;;6.47;;
19623;SDS011;9959;49.798;9.928;2023-04-07T15:11:20;8.77;;;6.57;;
19623;SDS011;9959;49.798;9.928;2023-04-07T15:13:47;13.50;;;8.48;;